Αρχική σελίδα
METAR-TAF:

METAR-TAF

Αεροδρόμια :

Χάλιφαξ, Νέα Σκωτία, Καναδάς

γεωγραφικό πλάτος: 44-53N, γεωγραφικό μήκος: 063-30W, υψόμετρο: 145 μ

Παρών καιρός

Η αναφορά έγινε 1 ώρα και 9 λεπτά πριν, στις 04:00 UTC
Άνεμος 9 kt από
Θερμοκρασία -11°C
Υγρασία 85%
Πίεση 1016 hPa
Ορατότητα: 24.1 χλμ
Καθαρός ουρανός

METAR: CYHZ 110400Z 31009KT 15SM SKC M11/M13 A2999 RMK SLP165

Χρόνος: 01:09 (05:09 UTC)

Πρόγνωση Καιρού

Η αναφορά έγινε 2 ώρες και 30 λεπτά πριν, στις 02:39 UTC
Η πρόγνωση ισχύει από τις 11 στις 03 UTC έως τις 11 στις 24 UTC
Άνεμος 8 kt από
Ορατότητα: 10 χλμ
Λίγα νέφη σε ύψος 2000 πόδια
Από 11 στις 1600 UTC
Άνεμος 5 kt από Ν/ΝΔ
Ορατότητα: 10 χλμ
Λίγα νέφη σε ύψος 20000 πόδια

TAF: CYHZ 110239Z 1103/1124 32008KT P6SM FEW020 FM111600 21005KT P6SM FEW200 RMK NXT FCST BY 110600Z

Μετεωρολογικές αναφορές και προγνώσεις για περισσότερα από 4000 αεροδρόμια (δελτία METAR και TAF).

Οι διαθέσιμοι σταθμοί απεικονίζονται στο χάρτη με κίτρινες και κόκκινες κουκκίδες.

Μετακινήστε το ποντίκι πάνω από τις κουκκίδες για να δείτε το όνομα του σταθμού.

Στη συνέχεια, κάντε κλικ για να δείτε τις μετεωρολογικές αναφορές και τις προγνώσεις καιρού.

Για να αλλάξετε το χάρτη: κάντε κλικ στα πράσινα κουμπιά με τον μαύρο σταυρό για να ζουμάρετε, στο πράσινο κουμπί με την παύλα για να αφαιρέσετε το ζουμ ή στα πράσινα βέλη για να αντιπαραβάλλετε χάρτες.


METAR-TAF: